Latest Weather Observations for Aireys Inlet

IDV60801

Issued at 8:32 pm EDT Saturday 25 March 2017 (issued every 30 minutes, with the page automatically refreshed every 10 minutes)

About weather observations | Map of weather stations | Latest weather observations for VIC | Other Formats
Station Details ID: 090180 Name: AIREYS INLET Lat: -38.46 Lon: 144.09 Height: 105.0 m
Data from the previous 72 hours. | See also: Recent months at Aireys Inlet
Date/Time
EDT
Temp
°C
App
Temp
°C
Dew
Point
°C
Rel
Hum
%
Delta-T
°C
Wind Press
QNH
hPa
Press
MSL
hPa
Rain since
9am
mm
Dir  Spd
km/h
Gust
km/h
Spd
kts
Gust
kts
25/08:30pm 18.4 16.5 16.7 90 1.0 SSW 22 33 12 18 - - 0.0
25/08:00pm 18.6 16.7 16.6 88 1.2 SSW 22 32 12 17 - - 0.0
25/07:30pm 19.1 17.8 16.7 86 1.5 SSW 19 32 10 17 - - 0.0
25/07:00pm 21.2 22.0 16.4 74 2.9 S 7 13 4 7 - - 0.0
25/06:30pm 22.0 23.1 15.6 67 3.8 SE 4 7 2 4 - - 0.0
25/06:00pm 22.6 23.2 15.4 64 4.3 ESE 6 9 3 5 - - 0.0
25/05:30pm 23.7 24.4 15.5 60 5.0 ESE 6 7 3 4 - - 0.0
25/05:00pm 24.0 24.5 15.5 59 5.1 SE 7 13 4 7 - - 0.0
25/04:30pm 24.5 24.8 14.9 55 5.8 ESE 7 11 4 6 - - 0.0
25/04:00pm 24.8 25.3 15.1 54 5.8 ESE 6 11 3 6 - - 0.0
25/03:30pm 24.0 24.7 16.0 61 4.9 ESE 7 9 4 5 - - 0.0
25/03:00pm 23.0 23.8 16.3 66 4.1 E 7 11 4 6 - - 0.0
25/02:30pm 24.6 25.5 16.6 61 4.9 ESE 7 11 4 6 - - 0.0
25/02:00pm 24.6 25.0 16.3 60 5.1 ESE 9 15 5 8 - - 0.0
25/01:30pm 24.5 25.1 16.7 61 4.8 ESE 9 15 5 8 - - 0.0
25/01:00pm 24.3 25.0 17.1 64 4.5 ESE 9 13 5 7 - - 0.0
25/12:30pm 24.8 25.5 16.2 58 5.3 SE 7 13 4 7 - - 0.0
25/12:00pm 24.6 25.7 16.6 61 4.9 SW 6 11 3 6 - - 0.0
25/11:30am 23.9 23.7 16.7 64 4.4 NW 13 17 7 9 - - 0.0
25/11:00am 22.2 21.3 15.8 67 3.9 NW 15 26 8 14 - - 0.0
25/10:30am 22.0 21.3 15.4 66 4.0 NW 13 22 7 12 - - 0.0
25/10:00am 21.9 21.1 15.0 65 4.1 NW 13 20 7 11 - - 0.0
25/09:30am 20.8 20.8 15.1 70 3.4 NNW 9 17 5 9 - - 0.0
25/09:00am 19.9 19.8 14.9 73 2.9 NNE 9 15 5 8 - - 0.0
25/08:30am 18.6 18.7 14.5 77 2.4 N 7 11 4 6 - - -
25/08:00am 18.4 18.5 14.5 78 2.3 N 7 9 4 5 - - -
25/07:30am 18.1 18.8 14.6 80 2.0 NNE 4 6 2 3 - - -
25/07:00am 18.9 19.2 14.6 76 2.5 NNE 6 7 3 4 - - -
25/06:30am 20.2 20.1 13.9 67 3.6 WNW 7 9 4 5 - - -
25/06:00am 19.7 19.3 14.1 70 3.2 NNW 9 15 5 8 - - -
25/05:30am 18.8 19.3 15.1 79 2.2 NE 6 9 3 5 - - -
25/05:00am 18.9 19.3 14.8 77 2.4 N 6 11 3 6 - - -
25/04:30am 18.3 18.9 15.2 82 1.8 NW 6 11 3 6 - - -
25/04:00am 17.6 18.7 15.6 88 1.2 NE 4 6 2 3 - - -
25/03:30am 17.6 18.8 15.9 90 1.0 N 4 9 2 5 - - -
25/03:00am 17.5 18.6 15.5 88 1.2 NNE 4 6 2 3 - - 0.0
25/02:30am 17.6 18.3 15.6 88 1.2 NNW 6 7 3 4 - - -
25/02:00am 17.3 16.3 15.5 89 1.1 NNE 15 20 8 11 - - -
25/01:30am 17.4 16.6 15.2 87 1.3 N 13 17 7 9 - - -
25/01:00am 15.8 15.2 14.7 93 0.6 N 11 17 6 9 - - -
25/12:30am 15.9 16.1 14.6 92 0.7 NNW 7 11 4 6 - - -
25/12:00am 16.0 16.1 14.5 91 0.9 NNW 7 9 4 5 - - -
 
Date/Time
EDT
Temp
°C
App
Temp
°C
Dew
Point
°C
Rel
Hum
%
Delta-T
°C
Wind Press
QNH
hPa
Press
MSL
hPa
Rain since
9am
mm
Dir  Spd
km/h
Gust
km/h
Spd
kts
Gust
kts
24/11:30pm 16.0 16.4 14.7 92 0.7 NNW 6 7 3 4 - - -
24/11:00pm 16.3 16.8 15.0 92 0.8 WNW 6 6 3 3 - - -
24/10:30pm 15.9 16.1 14.8 93 0.6 NW 7 9 4 5 - - -
24/10:00pm 16.2 16.7 14.9 92 0.8 NNW 6 9 3 5 - - -
24/09:30pm 16.5 17.4 15.0 91 0.9 NW 4 6 2 3 - - -
24/09:00pm 16.7 17.0 15.1 90 0.9 WSW 7 9 4 5 - - 0.0
24/08:30pm 16.8 17.2 15.2 90 0.9 SW 7 9 4 5 - - -
24/08:00pm 17.3 17.8 15.5 89 1.1 WSW 7 11 4 6 - - -
24/07:30pm 17.6 18.0 15.4 87 1.3 SW 7 9 4 5 - - -
24/07:00pm 18.1 19.2 15.5 85 1.5 SW 4 7 2 4 - - -
24/06:30pm 18.6 20.5 15.7 83 1.7 CALM 0 2 0 1 - - -
24/06:00pm 18.9 20.4 15.6 81 2.0 ESE 2 6 1 3 - - -
24/05:30pm 19.4 20.1 15.5 78 2.3 ESE 6 9 3 5 - - -
24/05:00pm 19.3 19.8 15.6 79 2.2 E 7 11 4 6 - - -
24/04:30pm 19.5 19.6 15.4 77 2.4 ESE 9 13 5 7 - - -
24/04:00pm 19.2 18.8 15.1 77 2.4 E 11 22 6 12 - - -
24/03:30pm 18.9 18.5 15.2 79 2.2 ESE 11 19 6 10 - - -
24/03:00pm 19.2 18.3 14.9 76 2.5 ESE 13 22 7 12 - - 0.0
24/02:30pm 19.5 18.7 15.2 76 2.5 ESE 13 22 7 12 - - -
24/02:00pm 18.9 18.8 15.0 78 2.3 E 9 17 5 9 - - -
24/01:30pm 18.5 17.6 14.8 79 2.2 E 13 22 7 12 - - -
24/01:00pm 18.7 17.7 14.6 77 2.4 E 13 24 7 13 - - -
24/12:30pm 18.4 17.0 14.5 78 2.3 E 15 24 8 13 - - -
24/12:00pm 18.3 16.9 14.6 79 2.2 E 15 22 8 12 - - -
24/11:30am 17.7 16.5 14.0 79 2.1 ESE 13 22 7 12 - - 0.0
24/11:00am 17.6 16.1 14.1 80 2.0 E 15 26 8 14 - - 0.0
24/10:30am 17.5 15.9 13.8 79 2.1 E 15 26 8 14 - - 0.0
24/10:00am 17.4 15.7 13.7 79 2.1 E 15 24 8 13 - - 0.0
24/09:30am 17.5 16.4 14.2 81 1.9 E 13 24 7 13 - - 0.0
24/09:00am 17.0 15.8 13.9 82 1.8 E 13 20 7 11 - - 0.0
24/08:30am 17.1 16.2 13.8 81 1.9 E 11 19 6 10 - - -
24/08:00am 16.7 15.8 13.8 83 1.6 E 11 22 6 12 - - -
24/07:30am 16.6 15.4 14.1 85 1.4 E 13 20 7 11 - - -
24/07:00am 16.3 14.7 13.8 85 1.4 E 15 26 8 14 - - -
24/06:30am 16.3 14.3 13.8 85 1.4 E 17 28 9 15 - - -
24/06:00am 16.2 14.6 14.0 87 1.3 E 15 28 8 15 - - -
24/05:30am 16.1 15.3 13.9 87 1.2 E 11 22 6 12 - - -
24/05:00am 16.1 15.3 13.9 87 1.2 E 11 17 6 9 - - 0.0
24/04:30am 16.2 14.6 14.0 87 1.3 ESE 15 26 8 14 - - 0.0
24/04:00am 16.2 14.1 13.7 85 1.4 E 17 24 9 13 - - 0.0
24/03:30am 16.3 14.6 13.6 84 1.5 E 15 26 8 14 - - 0.0
24/03:00am 16.3 14.3 13.8 85 1.4 E 17 24 9 13 - - 0.0
24/02:30am 16.4 14.4 13.9 85 1.4 E 17 30 9 16 - - 0.0
24/02:00am 16.4 14.0 13.7 84 1.5 E 19 26 10 14 - - 0.0
24/01:30am 16.5 14.9 13.8 84 1.5 E 15 28 8 15 - - 0.0
24/01:00am 16.6 14.4 13.3 81 1.9 E 17 30 9 16 - - 0.0
24/12:30am 16.7 14.5 13.4 81 1.9 E 17 28 9 15 - - 0.0
24/12:00am 16.7 14.6 13.6 82 1.8 E 17 28 9 15 - - 0.0
 
Date/Time
EDT
Temp
°C
App
Temp
°C
Dew
Point
°C
Rel
Hum
%
Delta-T
°C
Wind Press
QNH
hPa
Press
MSL
hPa
Rain since
9am
mm
Dir  Spd
km/h
Gust
km/h
Spd
kts
Gust
kts
23/11:30pm 16.9 14.9 13.8 82 1.8 E 17 30 9 16 - - 0.0
23/11:00pm 17.0 15.1 14.1 83 1.7 ESE 17 32 9 17 - - 0.0
23/10:30pm 17.1 14.8 14.2 83 1.7 ESE 19 32 10 17 - - 0.0
23/10:00pm 17.2 14.8 14.5 84 1.6 ESE 20 32 11 17 - - 0.0
23/09:30pm 17.0 15.7 14.8 87 1.3 ESE 15 32 8 17 - - 0.0
23/09:00pm 17.1 15.8 14.9 87 1.3 ESE 15 26 8 14 - - 0.0
23/08:30pm 17.0 15.7 14.8 87 1.3 ESE 15 28 8 15 - - 0.0
23/08:00pm 17.0 15.3 14.8 87 1.3 ESE 17 35 9 19 - - 0.0
23/07:30pm 17.1 15.5 14.9 87 1.3 SE 17 32 9 17 - - 0.0
23/07:00pm 17.1 15.0 14.7 86 1.4 SE 19 32 10 17 - - 0.0
23/06:30pm 17.3 15.1 14.8 85 1.5 SE 20 33 11 18 - - 0.0
23/06:00pm 17.8 15.7 14.7 82 1.8 SE 19 32 10 17 - - 0.0
23/05:30pm 17.8 16.5 14.7 82 1.8 SE 15 32 8 17 - - 0.0
23/05:00pm 18.0 16.7 14.7 81 1.9 SE 15 28 8 15 - - 0.0
23/04:30pm 18.4 17.1 14.7 79 2.2 SE 15 28 8 15 - - 0.0
23/04:00pm 18.7 17.5 15.0 79 2.2 SE 15 28 8 15 - - 0.0
23/03:30pm 18.9 17.7 15.0 78 2.3 SE 15 24 8 13 - - 0.0
23/03:00pm 19.3 17.6 14.8 75 2.6 SE 17 28 9 15 - - 0.0
23/02:30pm 19.6 17.5 14.8 74 2.8 SE 19 28 10 15 - - 0.0
23/02:00pm 19.3 17.2 14.8 75 2.6 SE 19 32 10 17 - - 0.0
23/01:30pm 19.4 17.1 14.6 74 2.8 SE 20 33 11 18 - - 0.0
23/01:00pm 19.1 17.4 14.8 76 2.5 SE 17 30 9 16 - - 0.0
23/12:30pm 18.5 16.3 14.4 77 2.4 SE 19 30 10 16 - - 0.0
23/12:00pm 19.3 17.7 15.0 76 2.5 ESE 17 30 9 16 - - 0.0
23/11:30am 18.6 16.4 14.5 77 2.4 ESE 19 32 10 17 - - 0.0
23/11:00am 18.4 16.5 14.3 77 2.4 ESE 17 30 9 16 - - 0.0
23/10:30am 18.4 17.1 14.7 79 2.2 ESE 15 33 8 18 - - 0.0
23/10:00am 17.7 15.8 14.2 80 2.0 ESE 17 28 9 15 - - 0.0
23/09:30am 17.3 15.3 14.0 81 1.9 ESE 17 28 9 15 - - 0.0
23/09:00am 17.2 15.7 14.1 82 1.8 ESE 15 33 8 18 - - 0.0
23/08:30am 16.9 14.5 13.8 82 1.8 ESE 19 30 10 16 - - 0.0
23/08:00am 16.7 14.7 13.8 83 1.6 ESE 17 32 9 17 - - 0.0
23/07:30am 16.6 14.1 13.5 82 1.8 ESE 19 32 10 17 - - 0.0
23/07:00am 16.6 14.9 13.7 83 1.6 ESE 15 26 8 14 - - 0.0
23/06:30am 16.5 14.4 13.6 83 1.6 ESE 17 32 9 17 - - 0.0
23/06:00am 16.7 14.7 13.8 83 1.6 ESE 17 26 9 14 - - 0.0
23/05:30am 16.6 15.0 13.9 84 1.5 ESE 15 30 8 16 - - 0.0
23/05:00am 16.6 14.2 13.7 83 1.6 ESE 19 30 10 16 - - 0.0
23/04:30am 16.5 14.5 14.0 85 1.4 ESE 17 28 9 15 - - 0.0
23/04:00am 16.4 14.4 13.9 85 1.4 ESE 17 28 9 15 - - 0.0
23/03:30am 16.2 14.5 13.7 85 1.4 ESE 15 28 8 15 - - 0.0
23/03:00am 16.7 14.7 14.0 84 1.5 ESE 17 28 9 15 - - 0.0
23/02:30am 16.4 14.3 13.7 84 1.5 ESE 17 32 9 17 - - 0.0
23/02:00am 16.4 14.9 14.1 86 1.3 ESE 15 24 8 13 - - 0.0
23/01:30am 16.7 14.4 14.2 85 1.4 ESE 19 28 10 15 - - 0.0
23/01:00am 16.9 15.5 14.5 86 1.4 ESE 15 30 8 16 - - 0.0
23/12:30am 16.9 15.5 14.5 86 1.4 ESE 15 28 8 15 - - 0.0
23/12:00am 17.1 15.4 14.6 85 1.4 ESE 17 26 9 14 - - 0.0
 
Date/Time
EDT
Temp
°C
App
Temp
°C
Dew
Point
°C
Rel
Hum
%
Delta-T
°C
Wind Press
QNH
hPa
Press
MSL
hPa
Rain since
9am
mm
Dir  Spd
km/h
Gust
km/h
Spd
kts
Gust
kts
22/11:30pm 16.9 15.4 14.2 84 1.5 ESE 15 28 8 15 - - 0.0
22/11:00pm 17.1 15.7 14.6 85 1.4 ESE 15 24 8 13 - - 0.0
22/10:30pm 17.0 15.7 14.8 87 1.3 ESE 15 26 8 14 - - 0.0
22/10:00pm 17.3 16.2 15.3 88 1.2 ESE 15 26 8 14 - - 0.0
22/09:30pm 17.2 15.2 15.0 87 1.3 ESE 19 33 10 18 - - 0.0
22/09:00pm 17.2 15.4 15.4 89 1.1 SE 19 32 10 17 - - 0.0

Other Formats:

Comma delimited format used in spreadsheet applications
http://www.bom.gov.au/fwo/IDV60801/IDV60801.94846.axf

JavaScript Object Notation format (JSON) in row-major order
http://www.bom.gov.au/fwo/IDV60801/IDV60801.94846.json